SBFZ/FOR METAR and TAF weather

Enter ICAO airport designator
Station Type Date Time Source
SBFZ METAR 2019/08/25 20:00 UTC NOAA

SBFZ 252000Z 08014KT 9999 FEW023 28/21 Q1014


Station Type Date Time Source
SBFZ Decoded METAR 2019/08/25 20:00 UTC NOAA

Station name not available
Aug 25, 2019 - 04:00 PM EDT / 2019.08.25 2000 UTC
Wind: from the E (080 degrees) at 16 MPH (14 KT):0
Visibility: greater than 7 mile(s):0
Sky conditions: mostly clear
Temperature: 82 F (28 C)
Dew Point: 69 F (21 C)
Relative Humidity: 65%
Pressure (altimeter): 29.94 in. Hg (1014 hPa)
ob: SBFZ 252000Z 08014KT 9999 FEW023 28/21 Q1014
cycle: 20

Station Type Date Time Source
SBFZ TAF 2019/08/25 18:24 UTC NOAA

TAF TAF SBFZ 251600Z 2518/2618 09015KT 9999 SCT030 TN25/2607Z TX30/2616Z
BECMG 2519/2521 06008KT CAVOK
BECMG 2522/2524 09010KT
BECMG 2604/2606 12008KT
BECMG 2612/2614 09015KT 9999 SCT030
RMK PEH

Example: see airport list